Time;durP1;ratioP1;P1;durP2;ratioP2;P2;SDS_P1;SDS_P2;PMS_P1;PMS_P2;Temp;Humidity;BMP_temperature;BMP_pressure;BME280_temperature;BME280_humidity;BME280_pressure;Samples;Min_cycle;Max_cycle;Signal;HPM_P1;HPM_P2
2023/07/04 00:00:11;;;;;;;;;;;;;;;27.17;38.92;100504.28;5055753;28;1409;-38
2023/07/04 00:02:36;;;;;;;;;;;;;;;26.68;40.00;100507.38;5056289;28;1902;-38
2023/07/04 00:05:02;;;;;;;;;;;;;;;27.15;38.82;100501.78;5055212;28;1314;-38
2023/07/04 00:07:28;;;;;;;;;;;;;;;27.29;38.89;100505.47;5071203;28;1226;-36
2023/07/04 00:09:54;;;;;;;;;;;;;;;26.73;40.23;100493.31;5055935;28;1023;-35
2023/07/04 00:12:19;;;;;;;;;;;;;;;27.11;39.12;100495.09;5055998;28;1139;-36
2023/07/04 00:14:45;;;;;;;;;;;;;;;27.16;38.98;100497.22;5055851;28;1165;-33
2023/07/04 00:17:10;;;;;;;;;;;;;;;26.71;40.21;100492.69;5071030;28;1202;-38
2023/07/04 00:19:37;;;;;;;;;;;;;;;27.11;39.13;100500.50;5055965;28;1159;-37
2023/07/04 00:22:04;;;;;;;;;;;;;;;27.00;39.61;100497.22;5055828;28;1035;-38
2023/07/04 00:24:30;;;;;;;;;;;;;;;26.87;40.10;100499.75;5055516;28;1977;-39
2023/07/04 00:26:57;;;;;;;;;;;;;;;27.09;39.62;100497.97;5055828;28;1098;-39
2023/07/04 00:29:23;;;;;;;;;;;;;;;27.02;39.62;100499.75;5054162;28;1024;-38
2023/07/04 00:31:49;;;;;;;;;;;;;;;27.07;39.36;100496.47;5055832;28;1071;-37
2023/07/04 00:34:14;;;;;;;;;;;;;;;27.30;38.71;100500.91;5055358;28;1012;-37
2023/07/04 00:36:40;;;;;;;;;;;;;;;27.13;39.53;100504.66;5055703;28;1230;-38
2023/07/04 00:39:06;;;;;;;;;;;;;;;27.21;38.97;100503.72;5070614;28;1182;-36
2023/07/04 00:41:31;;;;;;;;;;;;;;;27.14;39.50;100503.63;5055217;28;1167;-39
2023/07/04 00:44:07;;;;;;;;;;;;;;;26.87;40.45;100497.03;5054939;28;1926;-38
2023/07/04 00:46:39;;;;;;;;;;;;;;;27.23;39.33;100504.38;5070934;28;1203;-38
2023/07/04 00:49:06;;;;;;;;;;;;;;;26.99;40.39;100497.41;5055005;28;1134;-37
2023/07/04 00:51:33;;;;;;;;;;;;;;;27.04;40.14;100497.72;5071358;28;1035;-39
2023/07/04 00:53:58;;;;;;;;;;;;;;;27.28;39.37;100493.00;5070762;28;1157;-37
2023/07/04 00:56:25;;;;;;;;;;;;;;;27.13;39.84;100496.56;5055634;28;1071;-37
2023/07/04 00:58:55;;;;;;;;;;;;;;;27.16;39.29;100498.03;5070609;28;1171;-39
2023/07/04 01:01:20;;;;;;;;;;;;;;;27.28;39.25;100501.09;5074058;28;1387;-39
2023/07/04 01:03:46;;;;;;;;;;;;;;;26.95;39.79;100506.88;5058748;28;1987;-39
2023/07/04 01:06:12;;;;;;;;;;;;;;;27.26;39.24;100511.25;5074341;28;1163;-37
2023/07/04 01:08:46;;;;;;;;;;;;;;;27.17;39.12;100509.69;5058887;28;1242;-38
2023/07/04 01:11:15;;;;;;;;;;;;;;;27.08;39.50;100503.53;5074586;28;1114;-38
2023/07/04 01:13:44;;;;;;;;;;;;;;;27.24;39.14;100502.50;5058804;28;1098;-38
2023/07/04 01:16:16;;;;;;;;;;;;;;;26.96;39.91;100505.88;5073997;28;1083;-39
2023/07/04 01:18:42;;;;;;;;;;;;;;;27.11;39.60;100509.41;5058737;28;900;-38
2023/07/04 01:21:09;;;;;;;;;;;;;;;27.24;39.27;100518.72;5057279;28;1111;-37
2023/07/04 01:23:40;;;;;;;;;;;;;;;26.71;40.79;100511.56;5059040;28;1898;-38
2023/07/04 01:26:25;;;;;;;;;;;;;;;27.14;39.57;100516.31;5058423;28;1063;-38
2023/07/04 01:28:54;;;;;;;;;;;;;;;26.87;39.92;100510.53;5040979;28;1171;-38
2023/07/04 01:31:20;;;;;;;;;;;;;;;27.02;39.40;100513.25;5056868;28;1226;-38
2023/07/04 01:33:47;;;;;;;;;;;;;;;27.08;39.69;100511.66;5057351;28;1236;-38
2023/07/04 01:36:15;;;;;;;;;;;;;;;26.80;40.41;100517.69;5058620;28;1150;-38
2023/07/04 01:38:41;;;;;;;;;;;;;;;27.05;39.94;100515.56;5073642;28;1133;-37
2023/07/04 01:41:06;;;;;;;;;;;;;;;27.18;39.41;100523.00;5045087;28;1116;-36
2023/07/04 01:43:32;;;;;;;;;;;;;;;26.99;39.92;100516.31;5057742;28;1906;-34
2023/07/04 01:45:59;;;;;;;;;;;;;;;27.18;39.42;100520.28;5058309;28;1174;-38
2023/07/04 01:48:24;;;;;;;;;;;;;;;26.95;39.86;100513.13;5058344;28;1079;-37
2023/07/04 01:50:50;;;;;;;;;;;;;;;27.05;39.75;100520.97;5056788;28;1020;-36
2023/07/04 01:53:16;;;;;;;;;;;;;;;27.16;39.11;100527.75;5056538;28;1096;-38
2023/07/04 01:55:41;;;;;;;;;;;;;;;27.00;40.09;100524.22;5058246;28;1179;-38
2023/07/04 01:58:07;;;;;;;;;;;;;;;27.12;39.56;100538.09;5056842;28;1215;-38
2023/07/04 02:00:32;;;;;;;;;;;;;;;27.12;39.56;100537.25;5056680;28;1222;-37
2023/07/04 02:02:58;;;;;;;;;;;;;;;26.92;40.21;100532.41;5057760;28;1969;-38
2023/07/04 02:05:24;;;;;;;;;;;;;;;27.15;39.13;100544.97;5072840;28;1280;-38
2023/07/04 02:07:49;;;;;;;;;;;;;;;26.90;39.91;100534.44;5058013;28;1007;-38
2023/07/04 02:10:15;;;;;;;;;;;;;;;26.86;40.01;100536.69;5072900;28;1297;-38
2023/07/04 02:12:40;;;;;;;;;;;;;;;27.11;39.22;100538.28;5055057;28;1266;-37
2023/07/04 02:15:07;;;;;;;;;;;;;;;26.97;39.90;100537.25;5057457;28;1031;-37
2023/07/04 02:17:33;;;;;;;;;;;;;;;27.08;39.49;100542.19;5057641;28;1026;-38
2023/07/04 02:19:59;;;;;;;;;;;;;;;27.16;39.57;100541.25;5057742;28;1285;-38
2023/07/04 02:22:24;;;;;;;;;;;;;;;26.75;39.92;100537.16;5056289;28;1182;-38
2023/07/04 02:24:50;;;;;;;;;;;;;;;27.01;39.50;100542.09;5056094;28;1975;-38
2023/07/04 02:27:16;;;;;;;;;;;;;;;27.14;39.62;100536.03;5057237;28;1087;-38
2023/07/04 02:29:45;;;;;;;;;;;;;;;27.08;39.41;100538.66;5055994;28;1233;-36
2023/07/04 02:32:11;;;;;;;;;;;;;;;27.08;39.49;100538.66;5089675;28;1231;-38
2023/07/04 02:34:36;;;;;;;;;;;;;;;26.96;39.82;100528.28;5072551;28;1079;-37
2023/07/04 02:37:02;;;;;;;;;;;;;;;27.06;39.70;100528.03;5073012;28;1407;-38
2023/07/04 02:39:29;;;;;;;;;;;;;;;27.15;39.43;100528.78;5072694;28;1252;-38
2023/07/04 02:41:55;;;;;;;;;;;;;;;26.82;40.11;100529.16;5055489;28;1359;-37
2023/07/04 02:44:21;;;;;;;;;;;;;;;27.14;39.42;100527.94;5055704;28;1918;-38
2023/07/04 02:46:46;;;;;;;;;;;;;;;26.96;39.97;100524.78;5056113;28;1252;-38
2023/07/04 02:49:12;;;;;;;;;;;;;;;26.99;39.55;100519.81;5055732;28;1327;-39
2023/07/04 02:51:37;;;;;;;;;;;;;;;27.13;39.36;100522.72;5057288;28;1035;-38
2023/07/04 02:54:03;;;;;;;;;;;;;;;26.80;40.06;100526.63;5056281;28;1187;-39
2023/07/04 02:56:31;;;;;;;;;;;;;;;26.89;39.83;100528.19;5055864;28;1215;-38
2023/07/04 02:58:57;;;;;;;;;;;;;;;26.82;40.13;100531.84;5055715;28;1110;-37
2023/07/04 03:01:23;;;;;;;;;;;;;;;26.80;40.37;100533.88;5057305;28;1103;-39
2023/07/04 03:03:49;;;;;;;;;;;;;;;27.02;39.92;100534.84;5055087;28;1991;-39
2023/07/04 03:06:15;;;;;;;;;;;;;;;26.96;40.31;100538.28;5055181;28;1184;-38
2023/07/04 03:08:40;;;;;;;;;;;;;;;26.86;40.57;100536.69;5057016;28;1222;-36
2023/07/04 03:11:06;;;;;;;;;;;;;;;26.90;40.36;100531.75;5055301;28;1329;-38
2023/07/04 03:13:33;;;;;;;;;;;;;;;27.18;40.14;100538.34;5056441;28;1185;-38
2023/07/04 03:15:59;;;;;;;;;;;;;;;26.50;44.08;100532.00;5047639;28;1219;-36
2023/07/04 03:18:26;;;;;;;;;;;;;;;26.09;47.59;100538.59;5065793;28;1099;-39
2023/07/04 03:20:51;;;;;;;;;;;;;;;26.01;46.54;100536.78;5057014;28;1145;-39
2023/07/04 03:23:17;;;;;;;;;;;;;;;25.98;46.79;100535.31;5054302;28;1906;-39
2023/07/04 03:25:43;;;;;;;;;;;;;;;25.85;49.34;100545.84;5038801;28;1380;-39
2023/07/04 03:28:08;;;;;;;;;;;;;;;26.02;46.16;100539.34;5085041;28;1237;-39
2023/07/04 03:30:34;;;;;;;;;;;;;;;26.01;48.26;100540.34;5053490;28;1031;-39
2023/07/04 03:33:07;;;;;;;;;;;;;;;25.87;49.23;100546.50;5063399;28;1180;-39
2023/07/04 03:35:35;;;;;;;;;;;;;;;25.96;48.40;100550.00;5054855;28;1253;-38
2023/07/04 03:38:01;;;;;;;;;;;;;;;26.68;44.72;100553.25;5056060;28;1175;-36
2023/07/04 03:40:26;;;;;;;;;;;;;;;26.76;43.72;100555.00;5056536;28;1158;-35
2023/07/04 03:42:52;;;;;;;;;;;;;;;26.83;43.71;100552.41;5056056;28;1977;-37
2023/07/04 03:45:17;;;;;;;;;;;;;;;26.87;44.75;100554.56;5055952;28;1078;-37
2023/07/04 03:47:45;;;;;;;;;;;;;;;26.70;43.85;100556.59;5055356;28;1141;-32
2023/07/04 03:50:13;;;;;;;;;;;;;;;26.98;42.73;100553.25;5054568;28;1124;-37
2023/07/04 03:52:38;;;;;;;;;;;;;;;27.05;44.57;100549.81;5056106;28;1130;-35
2023/07/04 03:55:04;;;;;;;;;;;;;;;26.38;41.38;100547.78;5070992;28;1400;-31
2023/07/04 03:57:30;;;;;;;;;;;;;;;26.48;44.46;100552.94;5054991;28;1168;-35
2023/07/04 03:59:55;;;;;;;;;;;;;;;26.71;45.14;100552.06;5056364;28;1110;-35
2023/07/04 04:02:21;;;;;;;;;;;;;;;26.86;44.43;100555.56;5045606;28;1233;-34
2023/07/04 04:04:46;;;;;;;;;;;;;;;26.60;47.38;100546.09;5052973;28;1902;-36
2023/07/04 04:07:12;;;;;;;;;;;;;;;24.43;48.59;100549.03;5055581;28;809;-40
2023/07/04 04:09:37;;;;;;;;;;;;;;;22.94;51.79;100551.19;5056092;28;1096;-38
2023/07/04 04:12:04;;;;;;;;;;;;;;;22.40;51.64;100546.81;5055203;28;1218;-38
2023/07/04 04:14:29;;;;;;;;;;;;;;;22.31;51.74;100547.72;5047528;28;1103;-38
2023/07/04 04:16:56;;;;;;;;;;;;;;;22.14;51.15;100545.75;5055836;28;1055;-36
2023/07/04 04:19:21;;;;;;;;;;;;;;;21.99;51.67;100553.50;5071027;28;1102;-37
2023/07/04 04:21:47;;;;;;;;;;;;;;;21.31;53.61;100546.72;5053785;28;1379;-37
2023/07/04 04:24:12;;;;;;;;;;;;;;;23.41;50.85;100561.63;5054800;28;1971;-37
2023/07/04 04:26:39;;;;;;;;;;;;;;;24.67;51.32;100563.47;5055676;28;1250;-38
2023/07/04 04:29:05;;;;;;;;;;;;;;;25.55;45.79;100566.22;5055509;28;1146;-37
2023/07/04 04:31:33;;;;;;;;;;;;;;;25.17;49.01;100569.56;5055661;28;899;-38
2023/07/04 04:33:59;;;;;;;;;;;;;;;26.20;44.67;100580.44;5055569;28;1083;-36
2023/07/04 04:36:24;;;;;;;;;;;;;;;26.07;45.77;100581.06;5058989;28;1044;-37
2023/07/04 04:38:50;;;;;;;;;;;;;;;25.53;49.49;100583.56;5059416;28;1086;-38
2023/07/04 04:41:15;;;;;;;;;;;;;;;23.64;48.88;100580.69;5059613;28;1079;-37
2023/07/04 04:43:41;;;;;;;;;;;;;;;22.30;51.38;100573.69;5058949;28;1989;-36
2023/07/04 04:46:06;;;;;;;;;;;;;;;22.01;51.61;100580.13;5059563;28;1163;-37
2023/07/04 04:48:35;;;;;;;;;;;;;;;21.36;53.13;100581.91;5059506;28;1254;-36
2023/07/04 04:51:07;;;;;;;;;;;;;;;21.28;53.41;100586.16;5059755;28;1166;-37
2023/07/04 04:53:36;;;;;;;;;;;;;;;21.27;53.23;100586.31;5059797;28;1155;-34
2023/07/04 04:56:02;;;;;;;;;;;;;;;22.73;53.58;100589.13;5052793;28;1379;-34
2023/07/04 04:58:27;;;;;;;;;;;;;;;24.97;46.07;100588.00;5059307;28;1106;-35
2023/07/04 05:00:53;;;;;;;;;;;;;;;25.54;44.46;100582.56;5054677;28;1390;-35
2023/07/04 05:03:18;;;;;;;;;;;;;;;25.55;47.79;100595.84;5045896;28;1910;-36
2023/07/04 05:05:44;;;;;;;;;;;;;;;25.92;45.28;100595.31;5051714;28;1044;-35
2023/07/04 05:08:09;;;;;;;;;;;;;;;25.73;46.43;100592.06;5055881;28;916;-30
2023/07/04 05:10:35;;;;;;;;;;;;;;;26.15;47.69;100599.88;5058874;28;1067;-34
2023/07/04 05:13:00;;;;;;;;;;;;;;;24.32;49.01;100595.94;5054622;28;1520;-35
2023/07/04 05:15:26;;;;;;;;;;;;;;;22.39;52.18;100590.66;5045336;28;1425;-34
2023/07/04 05:17:51;;;;;;;;;;;;;;;21.50;52.94;100591.28;5054470;28;1016;-36
2023/07/04 05:20:23;;;;;;;;;;;;;;;21.11;53.70;100593.13;5058556;28;1049;-33
2023/07/04 05:22:49;;;;;;;;;;;;;;;20.93;54.02;100595.72;5058918;28;1969;-34
2023/07/04 05:25:14;;;;;;;;;;;;;;;20.86;54.74;100595.41;5058392;28;1062;-33
2023/07/04 05:27:41;;;;;;;;;;;;;;;22.11;56.91;100598.81;5051246;28;1104;-34
2023/07/04 05:30:07;;;;;;;;;;;;;;;24.80;46.11;100598.75;5038951;28;1357;-37
2023/07/04 05:32:33;;;;;;;;;;;;;;;25.22;46.57;100601.38;5045121;28;1401;-32
2023/07/04 05:34:59;;;;;;;;;;;;;;;25.67;45.48;100600.84;5050334;28;1564;-35
2023/07/04 05:37:25;;;;;;;;;;;;;;;25.90;45.03;100600.91;5044151;28;1398;-35
2023/07/04 05:39:51;;;;;;;;;;;;;;;25.44;50.08;100609.69;5054530;28;959;-35
2023/07/04 05:42:16;;;;;;;;;;;;;;;26.12;44.34;100616.41;5058616;28;1241;-34
2023/07/04 05:44:42;;;;;;;;;;;;;;;24.31;49.75;100613.91;5057533;28;1973;-34
2023/07/04 05:47:07;;;;;;;;;;;;;;;22.58;53.16;100605.75;5057905;28;1091;-35
2023/07/04 05:49:32;;;;;;;;;;;;;;;;;;5058049;28;1071;-35
2023/07/04 05:51:58;;;;;;;;;;;;;;;22.48;57.83;100613.03;5057138;28;1412;-33
2023/07/04 05:54:24;;;;;;;;;;;;;;;24.60;48.81;100609.03;5058216;28;1231;-36
2023/07/04 05:56:53;;;;;;;;;;;;;;;25.47;47.29;100612.03;5057970;28;871;-36
2023/07/04 05:59:18;;;;;;;;;;;;;;;26.11;46.91;100618.25;5057567;28;1032;-36
2023/07/04 06:01:44;;;;;;;;;;;;;;;26.11;44.33;100618.25;5055557;28;1388;-35
2023/07/04 06:04:10;;;;;;;;;;;;;;;26.56;47.02;100619.47;5052652;28;1950;-35
2023/07/04 06:06:36;;;;;;;;;;;;;;;26.65;45.10;100627.31;5057089;28;1329;-35
2023/07/04 06:09:02;;;;;;;;;;;;;;;26.53;46.57;100626.06;5054746;28;1148;-36
2023/07/04 06:11:29;;;;;;;;;;;;;;;26.46;49.91;100622.44;5057944;28;1221;-35
2023/07/04 06:13:55;;;;;;;;;;;;;;;26.59;46.85;100628.00;5058186;28;1134;-35
2023/07/04 06:16:21;;;;;;;;;;;;;;;26.13;50.20;100629.72;5057703;28;1157;-34
2023/07/04 06:18:46;;;;;;;;;;;;;;;26.68;46.13;100634.19;5057280;28;969;-33
2023/07/04 06:21:13;;;;;;;;;;;;;;;26.46;47.35;100634.03;5057186;28;1197;-35
2023/07/04 06:23:38;;;;;;;;;;;;;;;26.17;51.54;100630.19;5057625;28;1897;-35
2023/07/04 06:26:05;;;;;;;;;;;;;;;26.63;46.98;100632.03;5057891;28;1178;-35
2023/07/04 06:28:30;;;;;;;;;;;;;;;26.35;49.15;100627.22;5057419;28;1127;-33
2023/07/04 06:30:56;;;;;;;;;;;;;;;26.81;49.08;100636.25;5057217;28;1122;-36
2023/07/04 06:33:21;;;;;;;;;;;;;;;26.76;47.42;100639.50;5057027;28;937;-34
2023/07/04 06:35:47;;;;;;;;;;;;;;;26.44;51.84;100644.19;5057896;28;1082;-33
2023/07/04 06:38:12;;;;;;;;;;;;;;;26.93;46.84;100631.25;5057622;28;996;-35
2023/07/04 06:40:38;;;;;;;;;;;;;;;26.57;49.33;100637.31;5057102;28;1179;-33
2023/07/04 06:43:05;;;;;;;;;;;;;;;23.88;56.42;100638.16;5057385;28;1906;-35
2023/07/04 06:45:31;;;;;;;;;;;;;;;25.73;51.39;100637.88;5056746;28;975;-34
2023/07/04 06:47:56;;;;;;;;;;;;;;;24.24;54.09;100639.75;5057283;28;1083;-36
2023/07/04 06:50:22;;;;;;;;;;;;;;;25.05;54.60;100636.41;5056833;28;1142;-36
2023/07/04 06:52:47;;;;;;;;;;;;;;;25.25;51.43;100644.09;5057385;28;1202;-35
2023/07/04 06:55:13;;;;;;;;;;;;;;;24.66;58.49;100639.78;5057274;28;1263;-35
2023/07/04 06:57:38;;;;;;;;;;;;;;;25.96;51.67;100649.72;5055840;28;893;-34
2023/07/04 07:00:05;;;;;;;;;;;;;;;24.28;57.10;100659.09;5056778;28;1031;-36
2023/07/04 07:02:30;;;;;;;;;;;;;;;25.70;52.46;100640.06;5057264;28;1140;-35
2023/07/04 07:04:56;;;;;;;;;;;;;;;24.17;57.39;100646.81;5056638;28;1983;-36
2023/07/04 07:07:21;;;;;;;;;;;;;;;25.63;54.41;100642.63;5056854;28;1031;-35
2023/07/04 07:09:47;;;;;;;;;;;;;;;24.88;55.04;100643.63;5056610;28;913;-36
2023/07/04 07:12:12;;;;;;;;;;;;;;;24.80;59.14;100647.19;5056630;28;1071;-34
2023/07/04 07:14:38;;;;;;;;;;;;;;;26.21;52.72;100642.28;5056698;28;1059;-35
2023/07/04 07:17:04;;;;;;;;;;;;;;;24.67;59.37;100644.16;5056522;28;1125;-35
2023/07/04 07:19:30;;;;;;;;;;;;;;;26.17;53.15;100651.75;5056572;28;1126;-34
2023/07/04 07:21:55;;;;;;;;;;;;;;;24.20;56.51;100649.19;5056057;28;1479;-35
2023/07/04 07:24:21;;;;;;;;;;;;;;;25.34;53.87;100652.97;5056816;28;1972;-36
2023/07/04 07:26:46;;;;;;;;;;;;;;;24.81;54.12;100662.31;5053320;28;1551;-34
2023/07/04 07:29:12;;;;;;;;;;;;;;;24.76;57.57;100648.50;5048853;28;1258;-36
2023/07/04 07:31:37;;;;;;;;;;;;;;;26.09;50.87;100652.63;5041230;28;1396;-35
2023/07/04 07:34:03;;;;;;;;;;;;;;;25.45;55.27;100646.38;5043541;28;1040;-34
2023/07/04 07:36:30;;;;;;;;;;;;;;;26.39;50.04;100657.38;5056506;28;1317;-37
2023/07/04 07:38:56;;;;;;;;;;;;;;;24.57;58.89;100653.22;5054471;28;1795;-34
2023/07/04 07:41:25;;;;;;;;;;;;;;;26.12;51.76;100654.16;5055818;28;1107;-33
2023/07/04 07:43:51;;;;;;;;;;;;;;;24.52;56.66;100665.50;5055868;28;1980;-32
2023/07/04 07:46:16;;;;;;;;;;;;;;;25.91;52.92;100661.84;5044447;28;1338;-35
2023/07/04 07:48:42;;;;;;;;;;;;;;;24.56;54.85;100653.41;5070509;28;1693;-30
2023/07/04 07:51:09;;;;;;;;;;;;;;;25.36;54.23;100652.81;5055788;28;964;-35
2023/07/04 07:53:35;;;;;;;;;;;;;;;25.83;50.57;100659.19;5056372;28;1214;-36
2023/07/04 07:56:01;;;;;;;;;;;;;;;24.80;58.73;100659.78;5050815;28;1322;-34
2023/07/04 07:58:26;;;;;;;;;;;;;;;26.32;51.09;100659.06;5046181;28;1394;-34
2023/07/04 08:00:52;;;;;;;;;;;;;;;24.78;53.95;100654.56;5051541;28;870;-34
2023/07/04 08:03:17;;;;;;;;;;;;;;;25.72;52.66;100654.22;5055441;28;1910;-36
2023/07/04 08:05:43;;;;;;;;;;;;;;;25.05;52.97;100657.94;5055947;28;1062;-34
2023/07/04 08:08:08;;;;;;;;;;;;;;;25.27;55.38;100654.69;5055772;28;1082;-31
2023/07/04 08:10:37;;;;;;;;;;;;;;;26.60;48.31;100669.31;5059882;28;1226;-33
2023/07/04 08:13:03;;;;;;;;;;;;;;;25.07;57.33;100663.16;5060135;28;1086;-34
2023/07/04 08:15:28;;;;;;;;;;;;;;;26.50;49.21;100666.88;5059284;28;1156;-36
2023/07/04 08:17:54;;;;;;;;;;;;;;;24.58;53.62;100665.69;5060390;28;1058;-34
2023/07/04 08:20:21;;;;;;;;;;;;;;;25.98;51.43;100671.91;5059779;28;1219;-32
2023/07/04 08:22:47;;;;;;;;;;;;;;;25.45;51.38;100670.63;5059864;28;1985;-35
2023/07/04 08:25:12;;;;;;;;;;;;;;;25.34;55.71;100676.38;5059843;28;1118;-35
2023/07/04 08:27:38;;;;;;;;;;;;;;;26.61;48.09;100668.31;5059356;28;1087;-34
2023/07/04 08:30:04;;;;;;;;;;;;;;;25.06;52.21;100675.75;5059747;28;1058;-36
2023/07/04 08:32:29;;;;;;;;;;;;;;;25.98;50.26;100675.47;5058716;28;1091;-35
2023/07/04 08:34:55;;;;;;;;;;;;;;;25.69;51.10;100676.97;5059607;28;1132;-35
2023/07/04 08:37:21;;;;;;;;;;;;;;;25.21;56.15;100676.91;5059755;28;1078;-36
2023/07/04 08:39:46;;;;;;;;;;;;;;;26.49;48.74;100676.81;5059914;28;1040;-34
2023/07/04 08:42:12;;;;;;;;;;;;;;;25.40;51.70;100675.69;5052085;28;1066;-32
2023/07/04 08:44:40;;;;;;;;;;;;;;;25.92;51.28;100670.78;5042534;28;1906;-35
2023/07/04 08:47:07;;;;;;;;;;;;;;;26.05;48.95;100672.88;5046492;28;1296;-35
2023/07/04 08:49:34;;;;;;;;;;;;;;;24.94;56.01;100669.06;5071371;28;1055;-35
2023/07/04 08:52:23;;;;;;;;;;;;;;;26.42;48.35;100675.88;5046319;28;1586;-35
2023/07/04 08:54:51;;;;;;;;;;;;;;;24.50;52.24;100679.13;5046682;28;1262;-35
2023/07/04 08:57:32;;;;;;;;;;;;;;;25.94;49.46;100678.69;5074432;28;1234;-36
2023/07/04 09:00:21;;;;;;;;;;;;;;;25.18;50.44;100676.25;5074911;28;1040;-36
2023/07/04 09:02:52;;;;;;;;;;;;;;;25.49;53.26;100677.31;5038938;28;2362;-36
2023/07/04 09:05:23;;;;;;;;;;;;;;;26.53;48.34;100680.00;5039018;28;1393;-36
2023/07/04 09:07:52;;;;;;;;;;;;;;;24.71;56.02;100677.78;5051953;28;1138;-35
2023/07/04 09:10:29;;;;;;;;;;;;;;;26.35;48.73;100675.75;5055828;28;1032;-36
2023/07/04 09:12:55;;;;;;;;;;;;;;;24.78;51.44;100680.63;5043577;28;1032;-34
2023/07/04 09:15:24;;;;;;;;;;;;;;;25.46;50.75;100680.38;5054004;28;1372;-35
2023/07/04 09:17:53;;;;;;;;;;;;;;;25.60;49.55;100681.50;5053041;28;1352;-35
2023/07/04 09:20:19;;;;;;;;;;;;;;;24.48;57.07;100686.50;5070235;28;1393;-34
2023/07/04 09:22:44;;;;;;;;;;;;;;;26.10;48.74;100686.69;5058606;28;864;-35
2023/07/04 09:25:10;;;;;;;;;;;;;;;25.09;51.55;100685.31;5058119;28;1980;-35
2023/07/04 09:27:35;;;;;;;;;;;;;;;26.19;50.17;100692.03;5070672;28;1475;-34
2023/07/04 09:30:03;;;;;;;;;;;;;;;25.66;50.61;100697.00;5057436;28;1206;-35
2023/07/04 09:32:29;;;;;;;;;;;;;;;25.14;55.31;100691.03;5073590;28;1139;-35
2023/07/04 09:34:55;;;;;;;;;;;;;;;26.26;43.81;100688.44;5058475;28;1082;-35
2023/07/04 09:37:22;;;;;;;;;;;;;;;24.73;52.06;100691.91;5074240;28;1234;-37
2023/07/04 09:39:49;;;;;;;;;;;;;;;26.00;48.17;100689.59;5058336;28;1115;-35
2023/07/04 09:42:15;;;;;;;;;;;;;;;24.83;50.91;100692.56;5058602;28;1114;-38
2023/07/04 09:44:41;;;;;;;;;;;;;;;24.99;49.33;100698.97;5058203;28;1969;-34
2023/07/04 09:47:07;;;;;;;;;;;;;;;26.39;44.12;100681.66;5057932;28;880;-37
2023/07/04 09:49:36;;;;;;;;;;;;;;;24.83;53.04;100691.72;5055586;28;1214;-36
2023/07/04 09:52:03;;;;;;;;;;;;;;;26.40;47.47;100680.63;5055444;28;898;-39
2023/07/04 09:54:29;;;;;;;;;;;;;;;25.67;50.35;100685.19;5056816;28;1206;-35
2023/07/04 09:56:54;;;;;;;;;;;;;;;26.01;49.84;100688.56;5057952;28;1055;-36
2023/07/04 09:59:25;;;;;;;;;;;;;;;26.74;50.06;100690.09;5058336;28;1202;-33
2023/07/04 10:01:51;;;;;;;;;;;;;;;25.73;52.15;100682.81;5058431;28;1121;-33
2023/07/04 10:04:29;;;;;;;;;;;;;;;25.66;52.71;100675.44;5061888;28;1914;-31
2023/07/04 10:06:55;;;;;;;;;;;;;;;25.42;52.93;100673.66;5073191;28;1043;-35
2023/07/04 10:09:21;;;;;;;;;;;;;;;25.54;52.00;100680.34;5057760;28;1531;-32
2023/07/04 10:11:50;;;;;;;;;;;;;;;25.28;52.59;100675.19;5056571;28;1329;-31
2023/07/04 10:14:16;;;;;;;;;;;;;;;25.67;53.15;100673.59;5058298;28;1040;-37
2023/07/04 10:16:50;;;;;;;;;;;;;;;25.47;51.65;100667.75;5057623;28;1063;-37
2023/07/04 10:19:20;;;;;;;;;;;;;;;24.93;52.28;100665.53;5073083;28;1171;-37
2023/07/04 10:21:48;;;;;;;;;;;;;;;25.05;54.09;100663.31;5057803;28;1075;-37
2023/07/04 10:24:23;;;;;;;;;;;;;;;25.86;51.86;100663.41;5057424;28;2010;-33
2023/07/04 10:26:54;;;;;;;;;;;;;;;25.71;52.21;100672.22;5057820;28;1039;-34
2023/07/04 10:29:22;;;;;;;;;;;;;;;25.53;54.21;100678.66;5072629;28;1283;-33
2023/07/04 10:31:47;;;;;;;;;;;;;;;25.82;52.41;100673.69;5056415;28;923;-44
2023/07/04 10:34:14;;;;;;;;;;;;;;;25.61;54.57;100661.63;5056890;28;1167;-45
2023/07/04 10:36:39;;;;;;;;;;;;;;;25.63;53.25;100666.88;5057321;28;1051;-46
2023/07/04 10:39:07;;;;;;;;;;;;;;;25.65;52.80;100667.53;5072528;28;1202;-39
2023/07/04 10:41:39;;;;;;;;;;;;;;;25.74;52.61;100669.16;5057111;28;1593;-39
2023/07/04 10:44:16;;;;;;;;;;;;;;;25.56;54.53;100674.78;5055309;28;1993;-39
2023/07/04 10:46:43;;;;;;;;;;;;;;;25.50;54.07;100667.41;5073056;28;1103;-38
2023/07/04 10:49:10;;;;;;;;;;;;;;;25.31;52.26;100664.94;5072212;28;1273;-39
2023/07/04 10:51:37;;;;;;;;;;;;;;;25.51;53.18;100660.97;5072370;28;1122;-37
2023/07/04 10:54:03;;;;;;;;;;;;;;;25.17;52.54;100671.84;5071129;28;1063;-40
2023/07/04 10:56:32;;;;;;;;;;;;;;;24.74;49.83;100676.59;5045648;28;1115;-39
2023/07/04 10:59:01;;;;;;;;;;;;;;;25.68;51.30;100667.19;5052508;28;921;-39
2023/07/04 11:01:28;;;;;;;;;;;;;;;27.43;45.87;100663.13;5073640;28;1333;-41
2023/07/04 11:03:54;;;;;;;;;;;;;;;24.81;51.92;100666.84;5059431;28;1914;-39
2023/07/04 11:06:23;;;;;;;;;;;;;;;24.27;53.20;100662.78;5056322;28;1024;-40
2023/07/04 11:08:50;;;;;;;;;;;;;;;23.87;54.40;100671.41;5072212;28;912;-39
2023/07/04 11:11:25;;;;;;;;;;;;;;;24.35;53.36;100676.25;5056446;28;1090;-34
2023/07/04 11:13:52;;;;;;;;;;;;;;;25.09;56.71;100669.19;5063107;28;1198;-40
2023/07/04 11:16:19;;;;;;;;;;;;;;;27.24;48.97;100659.97;5084773;28;1142;-38
2023/07/04 11:18:57;;;;;;;;;;;;;;;24.42;53.55;100668.34;5071794;28;1130;-40
2023/07/04 11:21:23;;;;;;;;;;;;;;;23.23;55.00;100651.13;5055824;28;1028;-39
2023/07/04 11:23:50;;;;;;;;;;;;;;;24.13;53.59;100654.34;5049896;28;1917;-40
2023/07/04 11:26:16;;;;;;;;;;;;;;;26.21;50.30;100661.16;5054760;28;1044;-41
2023/07/04 11:28:43;;;;;;;;;;;;;;;25.04;51.90;100656.25;5047533;28;1296;-35
2023/07/04 11:31:09;;;;;;;;;;;;;;;23.92;55.36;100652.13;5056180;28;1034;-40
2023/07/04 11:33:53;;;;;;;;;;;;;;;23.94;54.93;100652.81;5056480;28;1086;-39
2023/07/04 11:36:25;;;;;;;;;;;;;;;24.04;54.47;100656.16;5044641;28;1079;-40
2023/07/04 11:38:52;;;;;;;;;;;;;;;24.09;54.48;100661.88;5071619;28;1122;-41
2023/07/04 11:41:25;;;;;;;;;;;;;;;25.99;52.28;100649.34;5056604;28;1071;-39
2023/07/04 11:43:50;;;;;;;;;;;;;;;27.41;49.38;100659.75;5055541;28;1918;-38
2023/07/04 11:46:23;;;;;;;;;;;;;;;23.99;54.17;100647.75;5071708;28;1114;-37
2023/07/04 11:48:49;;;;;;;;;;;;;;;23.49;53.06;100650.25;5056235;28;1159;-39
2023/07/04 11:51:14;;;;;;;;;;;;;;;24.83;56.27;100638.78;5071501;28;1071;-40
2023/07/04 11:53:45;;;;;;;;;;;;;;;26.59;51.78;100638.00;5056457;28;1091;-39
2023/07/04 11:56:33;;;;;;;;;;;;;;;26.07;52.74;100633.13;5054366;28;1459;-37
2023/07/04 11:59:10;;;;;;;;;;;;;;;25.35;54.12;100625.03;5055874;28;1023;-36
2023/07/04 12:01:51;;;;;;;;;;;;;;;25.73;53.31;100631.63;5056120;28;1083;-35
2023/07/04 12:04:26;;;;;;;;;;;;;;;25.01;54.50;100624.28;5049980;28;1910;-39
2023/07/04 12:06:55;;;;;;;;;;;;;;;25.07;53.29;100625.47;5052568;28;1111;-39
2023/07/04 12:09:25;;;;;;;;;;;;;;;24.80;53.62;100633.72;5064641;28;1074;-40
2023/07/04 12:11:54;;;;;;;;;;;;;;;25.27;53.13;100636.69;5071270;28;1100;-39
2023/07/04 12:14:20;;;;;;;;;;;;;;;25.30;52.15;100622.88;5071325;28;1047;-38
2023/07/04 12:16:45;;;;;;;;;;;;;;;25.67;52.20;100633.19;5056263;28;1162;-39
2023/07/04 12:19:14;;;;;;;;;;;;;;;25.66;52.93;100628.78;5071650;28;1226;-39
2023/07/04 12:21:41;;;;;;;;;;;;;;;25.65;52.59;100632.50;5061012;28;1058;-38
2023/07/04 12:24:06;;;;;;;;;;;;;;;25.71;51.37;100618.34;5056644;28;1906;-39
2023/07/04 12:26:33;;;;;;;;;;;;;;;25.67;52.23;100623.22;5055698;28;1082;-38
2023/07/04 12:29:00;;;;;;;;;;;;;;;25.78;51.48;100626.56;5056318;28;1147;-30
2023/07/04 12:31:26;;;;;;;;;;;;;;;25.42;52.73;100625.19;5045246;28;1376;-31
2023/07/04 12:33:52;;;;;;;;;;;;;;;25.61;53.74;100628.47;5042025;28;1424;-35
2023/07/04 12:36:19;;;;;;;;;;;;;;;25.65;54.78;100632.50;5045435;28;1296;-40
2023/07/04 12:38:45;;;;;;;;;;;;;;;25.74;53.85;100631.44;5055000;28;1151;-39
2023/07/04 12:41:14;;;;;;;;;;;;;;;25.85;53.43;100634.75;5056033;28;1139;-37
2023/07/04 12:43:39;;;;;;;;;;;;;;;25.89;52.99;100645.00;5071230;28;1894;-33
2023/07/04 12:46:08;;;;;;;;;;;;;;;25.93;54.52;100637.41;5054789;28;1135;-30